Airfield :
LOGIN :

Register | Disclaimer

   EN    FR    IT 

 










Legend :    VFR   Marginal VFR   IFR   Intensive IFR   Very Intensive IFR
Visi :
Ceiling :
>= 8 km
>= 3000ft
5 to 8 km
1000 to 3000 ft
1500m to 5 km
500 to 1000 ft
800 to 1500m
200 to 500 ft
< 800m
< 200 ft
Symbols :   Thunderstorms  Fog  Heavy snow  Heavy precipitations  Wind > 20 kt
SIGMETs :     Misc.  Thunderstorms  Icing  Turbulence  Mountain Waves  Volcanic Ashes






- Airport Elevation : 299 ft
- IATA code : EDM


LFRI - La Roche Sur Yon - Les Ajoncs

CURRENT METAR :
  • 232230Z AUTO 08002KT CAVOK 02/02 Q1001

EXPIRED METARs :
  • 232200Z AUTO 00000KT 8000 NSC 02/01 Q1001
  • 232130Z AUTO 00000KT 7000 NSC 02/02 Q1001 NOSIG
  • 232100Z AUTO 12002KT CAVOK 02/02 Q1001 NOSIG
  • 232030Z AUTO 11001KT CAVOK 03/02 Q1000 NOSIG
  • 232000Z AUTO 00000KT CAVOK 03/02 Q1000 NOSIG

TAF TAF LFRI
Valid from the 23 at 18:00 until the 24 at 18:00 UTC


231700Z 2318/2418 VRB04KT 9999 SCT020 SCT030
BECMG 2403/2405 17010KT
TEMPO 2402/2415 4000 SHRA BKN014TCU
BECMG 2408/2412 27010KT
PROB30
TEMPO 2415/2418 4500 SHRA BKN030TCU



MET'MAP, your aeronautical weather chart ! - Copyright ORBIFLY December 2007 - Disclaimer

ORBIFLY MET'MAP TEAM :

Programming & Development : Alexandra Zaïnal
Concept & original design : Baudouin d'Aumeries
Assistance for programming : Marc-Olivier Méhu
Technical & hardware support : Manuel Goepfert

Contact : metmap@orbifly.com




SOURCES & CREDITS :

   NOAA